createdAt,value
2018-03-27T00:00:58.513Z,-9.50
2018-03-27T00:03:26.795Z,-9.40
2018-03-27T00:05:54.264Z,-9.40
2018-03-27T00:08:24.776Z,-9.40
2018-03-27T00:10:51.638Z,-9.50
2018-03-27T00:13:18.794Z,-9.50
2018-03-27T00:15:45.912Z,-9.60
2018-03-27T00:18:13.415Z,-9.50
2018-03-27T00:20:40.878Z,-9.50
2018-03-27T00:23:08.444Z,-9.70
2018-03-27T00:25:35.598Z,-9.70
2018-03-27T00:28:15.958Z,-9.70
2018-03-27T00:30:56.149Z,-9.70
2018-03-27T00:33:35.441Z,-9.60
2018-03-27T00:36:15.391Z,-9.70
2018-03-27T00:38:54.529Z,-9.80
2018-03-27T00:44:33.272Z,-9.50
2018-03-27T00:46:59.955Z,-9.70
2018-03-27T00:49:26.663Z,-9.80
2018-03-27T00:51:53.410Z,-9.90
2018-03-27T00:54:20.973Z,-9.80
2018-03-27T00:56:47.722Z,-9.80
2018-03-27T00:59:14.773Z,-9.80
2018-03-27T01:01:42.136Z,-9.80
2018-03-27T01:04:09.063Z,-9.90
2018-03-27T01:06:35.773Z,-9.90
2018-03-27T01:09:04.010Z,-10.00
2018-03-27T01:11:30.757Z,-10.10
2018-03-27T01:13:57.709Z,-10.00
2018-03-27T01:16:24.766Z,-10.00
2018-03-27T01:18:51.917Z,-9.90
2018-03-27T01:21:18.867Z,-10.00
2018-03-27T01:23:45.908Z,-10.00
2018-03-27T01:26:13.385Z,-9.90
2018-03-27T01:28:40.237Z,-9.90
2018-03-27T01:31:07.181Z,-10.00
2018-03-27T01:33:34.529Z,-10.00
2018-03-27T01:36:02.006Z,-10.00
2018-03-27T01:38:29.468Z,-10.10
2018-03-27T01:40:56.318Z,-9.90
2018-03-27T01:43:23.167Z,-10.10
2018-03-27T01:45:50.937Z,-10.10
2018-03-27T01:48:17.990Z,-10.10
2018-03-27T01:50:44.819Z,-10.10
2018-03-27T01:53:12.404Z,-10.20
2018-03-27T01:55:39.148Z,-10.20
2018-03-27T01:58:05.903Z,-10.20
2018-03-27T02:00:32.640Z,-10.30
2018-03-27T02:02:59.697Z,-10.30
2018-03-27T02:05:26.544Z,-10.20
2018-03-27T02:07:53.289Z,-10.20
2018-03-27T02:10:20.243Z,-10.10
2018-03-27T02:12:52.923Z,-10.20
2018-03-27T02:15:26.091Z,-10.20
2018-03-27T02:17:59.615Z,-10.20
2018-03-27T02:20:32.808Z,-10.30
2018-03-27T02:23:05.695Z,-10.70
2018-03-27T02:25:32.441Z,-11.10
2018-03-27T02:27:59.548Z,-10.80
2018-03-27T02:30:26.501Z,-10.70
2018-03-27T02:32:54.728Z,-10.50
2018-03-27T02:35:21.990Z,-10.50
2018-03-27T02:37:48.731Z,-10.40
2018-03-27T02:40:15.782Z,-10.40
2018-03-27T02:42:42.838Z,-10.50
2018-03-27T02:45:10.097Z,-10.50
2018-03-27T02:47:36.843Z,-10.50
2018-03-27T02:50:03.997Z,-10.60
2018-03-27T02:52:30.741Z,-10.60
2018-03-27T02:54:57.774Z,-10.60
2018-03-27T02:57:32.526Z,-10.60
2018-03-27T02:59:59.376Z,-10.60
2018-03-27T03:02:26.324Z,-10.50
2018-03-27T03:04:53.173Z,-10.50
2018-03-27T03:07:20.338Z,-10.60
2018-03-27T03:09:47.076Z,-10.80
2018-03-27T03:12:13.820Z,-11.00
2018-03-27T03:14:40.566Z,-11.00
2018-03-27T03:17:07.724Z,-10.90
2018-03-27T03:19:34.364Z,-10.70
2018-03-27T03:22:01.011Z,-10.80
2018-03-27T03:24:27.963Z,-10.90
2018-03-27T03:26:54.709Z,-11.00
2018-03-27T03:29:21.968Z,-10.90
2018-03-27T03:31:49.021Z,-10.80
2018-03-27T03:34:15.674Z,-10.80
2018-03-27T03:36:42.407Z,-10.80
2018-03-27T03:39:09.463Z,-10.70
2018-03-27T03:41:36.189Z,-10.80
2018-03-27T03:44:02.903Z,-10.80
2018-03-27T03:46:31.237Z,-10.70
2018-03-27T03:48:57.981Z,-10.70
2018-03-27T03:51:24.814Z,-10.70
2018-03-27T03:53:51.679Z,-10.90
2018-03-27T03:56:18.665Z,-10.90
2018-03-27T03:58:45.377Z,-11.00
2018-03-27T04:01:12.633Z,-11.00
2018-03-27T04:03:39.382Z,-10.90
2018-03-27T04:06:06.135Z,-10.90
2018-03-27T04:08:33.077Z,-10.90
2018-03-27T04:11:00.335Z,-11.00
2018-03-27T04:13:27.084Z,-11.00
2018-03-27T04:15:53.829Z,-11.10
2018-03-27T04:18:20.677Z,-11.10
2018-03-27T04:20:47.422Z,-10.90
2018-03-27T04:23:15.398Z,-10.90
2018-03-27T04:25:42.347Z,-10.90
2018-03-27T04:28:09.097Z,-10.90
2018-03-27T04:30:35.816Z,-10.90
2018-03-27T04:33:03.303Z,-10.90
2018-03-27T04:35:30.051Z,-11.00
2018-03-27T04:37:57.206Z,-10.90
2018-03-27T04:40:23.953Z,-11.00
2018-03-27T04:42:50.701Z,-11.00
2018-03-27T04:45:17.856Z,-10.90
2018-03-27T04:47:44.599Z,-10.80
2018-03-27T04:50:11.346Z,-10.90
2018-03-27T04:52:38.708Z,-10.80
2018-03-27T04:55:05.659Z,-10.70
2018-03-27T04:57:32.402Z,-10.70
2018-03-27T04:59:59.968Z,-10.70
2018-03-27T05:02:26.645Z,-10.60
2018-03-27T05:04:54.176Z,-10.70
2018-03-27T05:07:21.231Z,-10.70
2018-03-27T05:09:47.980Z,-10.70
2018-03-27T05:12:14.733Z,-10.70
2018-03-27T05:14:41.673Z,-10.50
2018-03-27T05:17:08.522Z,-10.60
2018-03-27T05:19:35.472Z,-10.60
2018-03-27T05:22:03.881Z,-10.60
2018-03-27T05:24:30.703Z,-10.90
2018-03-27T05:26:57.769Z,-10.80
2018-03-27T05:29:25.221Z,-10.70
2018-03-27T05:31:53.094Z,-10.50
2018-03-27T05:34:19.839Z,-10.50
2018-03-27T05:36:46.590Z,-10.40
2018-03-27T05:39:13.441Z,-10.30
2018-03-27T05:41:43.577Z,-10.20
2018-03-27T05:44:11.945Z,-10.00
2018-03-27T05:46:39.509Z,-9.80
2018-03-27T05:49:07.072Z,-9.20
2018-03-27T05:51:33.955Z,-9.20
2018-03-27T05:54:00.622Z,-9.00
2018-03-27T05:56:27.615Z,-9.00
2018-03-27T05:58:54.568Z,-9.00
2018-03-27T06:01:21.313Z,-9.00
2018-03-27T06:03:48.366Z,-8.80
2018-03-27T06:06:15.166Z,-8.70
2018-03-27T06:08:41.861Z,-8.70
2018-03-27T06:11:10.171Z,-8.00
2018-03-27T06:13:44.768Z,-6.70
2018-03-27T06:16:11.512Z,-6.80
2018-03-27T06:18:38.260Z,-5.50
2018-03-27T06:21:05.010Z,-3.30
2018-03-27T06:23:31.753Z,-1.80
2018-03-27T06:25:58.496Z,-1.60
2018-03-27T06:28:25.243Z,-1.30
2018-03-27T06:30:52.091Z,-0.50
2018-03-27T06:33:18.841Z,-0.50
2018-03-27T06:35:47.860Z,-1.50
2018-03-27T06:38:16.015Z,-1.70
2018-03-27T06:40:42.761Z,-2.20
2018-03-27T06:43:09.507Z,-2.90
2018-03-27T06:45:36.368Z,-3.30
2018-03-27T06:48:03.104Z,-3.50
2018-03-27T06:50:30.260Z,-3.70
2018-03-27T06:52:57.924Z,-3.50
2018-03-27T06:55:24.967Z,-3.80
2018-03-27T06:57:52.543Z,-4.00
2018-03-27T07:00:19.290Z,-3.80
2018-03-27T07:02:46.055Z,-3.60
2018-03-27T07:05:12.886Z,-3.30
2018-03-27T07:07:39.649Z,-2.20
2018-03-27T07:10:06.385Z,-1.60
2018-03-27T07:12:34.354Z,-1.90
2018-03-27T07:15:02.432Z,-1.90
2018-03-27T07:17:29.101Z,-2.10
2018-03-27T07:19:56.333Z,-1.50
2018-03-27T07:22:23.594Z,-0.30
2018-03-27T07:24:50.548Z,1.40
2018-03-27T07:27:17.695Z,3.90
2018-03-27T07:29:44.747Z,5.10
2018-03-27T07:32:12.619Z,8.50
2018-03-27T07:34:39.570Z,8.40
2018-03-27T07:37:06.427Z,9.70
2018-03-27T07:39:33.268Z,11.90
2018-03-27T07:42:00.411Z,11.80
2018-03-27T07:44:27.271Z,11.50
2018-03-27T07:46:54.535Z,13.00
2018-03-27T07:49:21.432Z,14.80
2018-03-27T07:51:49.555Z,11.20
2018-03-27T07:54:16.304Z,11.10
2018-03-27T07:56:43.057Z,7.10
2018-03-27T07:59:10.001Z,6.60
2018-03-27T08:01:37.466Z,8.10
2018-03-27T08:04:06.448Z,6.60
2018-03-27T08:06:33.822Z,7.30
2018-03-27T08:09:01.387Z,8.20
2018-03-27T08:11:28.319Z,5.60
2018-03-27T08:13:55.186Z,4.30
2018-03-27T08:16:22.842Z,3.80
2018-03-27T08:18:51.235Z,2.70
2018-03-27T08:21:18.085Z,2.60
2018-03-27T08:23:44.830Z,2.40
2018-03-27T08:26:11.680Z,2.10
2018-03-27T08:28:38.428Z,1.10
2018-03-27T08:31:05.379Z,0.70
2018-03-27T08:33:32.227Z,0.50
2018-03-27T08:35:59.320Z,0.60
2018-03-27T08:38:26.434Z,0.30
2018-03-27T08:40:53.179Z,1.60
2018-03-27T08:43:21.693Z,5.00
2018-03-27T08:45:48.514Z,5.00
2018-03-27T08:48:15.363Z,5.80
2018-03-27T08:50:42.724Z,7.20
2018-03-27T08:53:09.574Z,7.70
2018-03-27T08:55:37.729Z,7.20
2018-03-27T08:58:05.625Z,7.50
2018-03-27T09:00:32.317Z,7.50
2018-03-27T09:02:59.832Z,7.40
2018-03-27T09:05:26.915Z,7.40
2018-03-27T09:07:55.063Z,6.20
2018-03-27T09:10:22.222Z,6.10
2018-03-27T09:12:49.991Z,6.20
2018-03-27T09:15:17.043Z,4.50
2018-03-27T09:17:43.788Z,4.60
2018-03-27T09:20:10.534Z,5.00
2018-03-27T09:22:37.590Z,7.20
2018-03-27T09:25:04.616Z,8.30
2018-03-27T09:27:32.104Z,7.90
2018-03-27T09:29:59.565Z,7.90
2018-03-27T09:32:26.329Z,5.90
2018-03-27T09:34:53.263Z,5.50
2018-03-27T09:37:20.610Z,5.40
2018-03-27T09:39:47.881Z,5.50
2018-03-27T09:42:15.040Z,4.80
2018-03-27T09:44:43.556Z,4.80
2018-03-27T09:47:10.372Z,4.40
2018-03-27T09:49:38.945Z,4.10
2018-03-27T09:52:07.245Z,4.10
2018-03-27T09:54:33.989Z,4.10
2018-03-27T09:57:01.016Z,4.20
2018-03-27T09:59:28.608Z,4.20
2018-03-27T10:01:55.661Z,4.20
2018-03-27T10:04:22.510Z,3.10
2018-03-27T10:06:50.281Z,3.40
2018-03-27T10:09:17.258Z,3.60
2018-03-27T10:11:45.352Z,3.80
2018-03-27T10:14:12.766Z,3.70
2018-03-27T10:16:40.846Z,3.10
2018-03-27T10:19:08.313Z,3.00
2018-03-27T10:21:35.570Z,3.00
2018-03-27T10:24:02.516Z,2.50
2018-03-27T10:26:29.363Z,2.40
2018-03-27T10:28:56.416Z,2.40
2018-03-27T10:31:23.163Z,1.70
2018-03-27T10:33:50.321Z,1.20
2018-03-27T10:36:17.169Z,0.90
2018-03-27T10:38:43.917Z,1.30
2018-03-27T10:41:10.665Z,1.90
2018-03-27T10:43:37.508Z,1.60
2018-03-27T10:46:04.359Z,1.80
2018-03-27T10:48:31.520Z,2.20
2018-03-27T10:50:58.260Z,2.80
2018-03-27T10:53:25.005Z,3.30
2018-03-27T10:55:52.673Z,3.00
2018-03-27T10:58:19.523Z,3.00
2018-03-27T11:00:46.268Z,3.10
2018-03-27T11:03:13.015Z,3.20
2018-03-27T11:05:39.758Z,3.10
2018-03-27T11:08:06.505Z,2.60
2018-03-27T11:10:33.562Z,3.00
2018-03-27T11:13:00.509Z,3.20
2018-03-27T11:15:27.563Z,2.50
2018-03-27T11:17:54.829Z,2.40
2018-03-27T11:20:21.568Z,2.40
2018-03-27T11:22:48.620Z,1.90
2018-03-27T11:25:15.881Z,1.90
2018-03-27T11:27:42.935Z,1.90
2018-03-27T11:30:09.678Z,1.80
2018-03-27T11:32:36.528Z,1.60
2018-03-27T11:35:03.274Z,1.80
2018-03-27T11:37:30.840Z,1.90
2018-03-27T11:39:57.686Z,1.90
2018-03-27T11:42:24.436Z,1.80
2018-03-27T11:44:51.180Z,1.80
2018-03-27T11:47:17.885Z,1.60
2018-03-27T11:49:44.672Z,1.70
2018-03-27T11:52:13.749Z,2.30
2018-03-27T11:54:40.890Z,2.60
2018-03-27T11:57:07.783Z,2.70
2018-03-27T11:59:34.604Z,3.00
2018-03-27T12:02:02.232Z,2.80
2018-03-27T12:04:29.038Z,2.80
2018-03-27T12:06:55.685Z,2.10
2018-03-27T12:09:22.430Z,1.90
2018-03-27T12:11:49.380Z,2.30
2018-03-27T12:14:16.126Z,2.30
2018-03-27T12:16:42.853Z,2.80
2018-03-27T12:19:10.336Z,2.80
2018-03-27T12:21:37.083Z,2.80
2018-03-27T12:24:03.931Z,2.60
2018-03-27T12:26:30.675Z,2.90
2018-03-27T12:28:57.424Z,3.30
2018-03-27T12:31:24.171Z,3.40
2018-03-27T12:33:58.076Z,3.10
2018-03-27T12:36:25.079Z,3.30
2018-03-27T12:38:51.856Z,3.40
2018-03-27T12:41:19.338Z,3.60
2018-03-27T12:43:46.189Z,3.50
2018-03-27T12:46:13.651Z,3.50
2018-03-27T12:48:41.216Z,1.90
2018-03-27T12:51:08.167Z,1.80
2018-03-27T12:53:34.914Z,1.80
2018-03-27T12:56:01.763Z,1.80
2018-03-27T12:58:28.611Z,1.60
2018-03-27T13:00:55.355Z,1.20
2018-03-27T13:03:22.101Z,1.40
2018-03-27T13:05:49.359Z,1.30
2018-03-27T13:08:16.106Z,1.40
2018-03-27T13:10:42.828Z,1.40
2018-03-27T13:13:10.829Z,1.30
2018-03-27T13:15:37.575Z,1.30
2018-03-27T13:18:04.320Z,1.30
2018-03-27T13:20:31.374Z,1.60
2018-03-27T13:22:58.126Z,1.50
2018-03-27T13:25:24.876Z,1.40
2018-03-27T13:27:52.263Z,1.00
2018-03-27T13:30:19.003Z,1.10
2018-03-27T13:32:46.030Z,1.20
2018-03-27T13:35:13.807Z,0.60
2018-03-27T13:37:40.540Z,0.60
2018-03-27T13:40:07.259Z,0.60
2018-03-27T13:42:34.033Z,0.80
2018-03-27T13:45:01.194Z,0.20
2018-03-27T13:47:29.430Z,-0.20
2018-03-27T13:49:56.212Z,-0.20
2018-03-27T13:52:22.884Z,-0.20
2018-03-27T13:54:49.602Z,0.10
2018-03-27T13:57:16.354Z,0.00
2018-03-27T13:59:43.996Z,-0.10
2018-03-27T14:02:11.576Z,-0.20
2018-03-27T14:04:38.959Z,-0.20
2018-03-27T14:07:06.470Z,0.10
2018-03-27T14:09:34.196Z,-0.10
2018-03-27T14:12:01.071Z,-0.10
2018-03-27T14:14:29.797Z,0.30
2018-03-27T14:16:56.668Z,0.30
2018-03-27T14:19:23.412Z,0.60
2018-03-27T14:21:50.980Z,0.40
2018-03-27T14:24:17.829Z,0.60
2018-03-27T14:26:44.576Z,0.80
2018-03-27T14:29:11.626Z,0.70
2018-03-27T14:31:39.291Z,0.70
2018-03-27T14:34:05.963Z,0.80
2018-03-27T14:36:33.299Z,1.00
2018-03-27T14:38:59.955Z,1.30
2018-03-27T14:41:26.960Z,1.60
2018-03-27T14:43:54.460Z,1.90
2018-03-27T14:46:21.307Z,1.90
2018-03-27T14:48:48.052Z,1.90
2018-03-27T14:51:15.710Z,1.10
2018-03-27T14:53:42.467Z,1.10
2018-03-27T14:56:10.033Z,1.20
2018-03-27T14:58:37.184Z,1.10
2018-03-27T15:01:03.935Z,1.10
2018-03-27T15:03:30.988Z,1.00
2018-03-27T15:05:58.245Z,1.20
2018-03-27T15:08:25.053Z,1.30
2018-03-27T15:10:51.941Z,1.40
2018-03-27T15:13:19.993Z,1.00
2018-03-27T15:15:47.417Z,1.10
2018-03-27T15:18:14.636Z,1.10
2018-03-27T15:20:42.485Z,0.90
2018-03-27T15:23:09.877Z,0.90
2018-03-27T15:25:36.577Z,1.00
2018-03-27T15:28:04.488Z,0.90
2018-03-27T15:30:31.156Z,0.90
2018-03-27T15:32:58.183Z,0.40
2018-03-27T15:35:25.748Z,0.00
2018-03-27T15:37:52.436Z,-0.10
2018-03-27T15:40:19.550Z,-0.20
2018-03-27T15:42:46.710Z,-0.40
2018-03-27T15:45:13.859Z,-0.40
2018-03-27T15:47:40.707Z,-0.40
2018-03-27T15:50:08.478Z,-0.50
2018-03-27T15:52:35.176Z,-0.40
2018-03-27T15:55:02.039Z,-0.50
2018-03-27T15:57:28.747Z,-0.70
2018-03-27T15:59:55.388Z,-0.60
2018-03-27T16:02:22.497Z,-0.70
2018-03-27T16:04:50.139Z,-0.80
2018-03-27T16:07:17.644Z,-0.80
2018-03-27T16:09:44.497Z,-0.80
2018-03-27T16:12:11.240Z,-0.70
2018-03-27T16:14:37.950Z,-0.70
2018-03-27T16:17:05.449Z,-0.70
2018-03-27T16:19:32.198Z,-0.70
2018-03-27T16:21:59.148Z,-0.70
2018-03-27T16:24:25.888Z,-0.80
2018-03-27T16:26:52.842Z,-0.90
2018-03-27T16:29:19.766Z,-0.90
2018-03-27T16:31:46.746Z,-1.00
2018-03-27T16:34:14.137Z,-1.00
2018-03-27T16:36:41.723Z,-1.30
2018-03-27T16:39:08.519Z,-1.30
2018-03-27T16:41:35.265Z,-1.40
2018-03-27T16:44:02.462Z,-1.50
2018-03-27T16:46:29.270Z,-1.60
2018-03-27T16:48:55.944Z,-1.60
2018-03-27T16:51:22.969Z,-1.60
2018-03-27T16:53:50.122Z,-1.70
2018-03-27T16:56:16.856Z,-1.80
2018-03-27T16:58:43.923Z,-1.90
2018-03-27T17:01:11.693Z,-1.90
2018-03-27T17:03:38.698Z,-1.90
2018-03-27T17:06:06.475Z,-2.00
2018-03-27T17:08:33.915Z,-2.10
2018-03-27T17:11:00.866Z,-2.20
2018-03-27T17:13:27.548Z,-2.30
2018-03-27T17:15:54.327Z,-2.40
2018-03-27T17:18:21.003Z,-2.50
2018-03-27T17:20:47.901Z,-2.60
2018-03-27T17:23:14.661Z,-2.70
2018-03-27T17:25:41.335Z,-2.90
2018-03-27T17:28:08.080Z,-2.90
2018-03-27T17:30:34.852Z,-3.10
2018-03-27T17:33:01.644Z,-3.20
2018-03-27T17:35:28.398Z,-3.30
2018-03-27T17:37:55.445Z,-3.40
2018-03-27T17:40:22.878Z,-3.50
2018-03-27T17:42:50.462Z,-3.70
2018-03-27T17:45:18.039Z,-3.70
2018-03-27T17:47:45.269Z,-3.70
2018-03-27T17:50:12.127Z,-3.80
2018-03-27T17:52:39.194Z,-3.90
2018-03-27T17:55:05.941Z,-4.00
2018-03-27T17:57:33.199Z,-4.10
2018-03-27T18:00:01.075Z,-4.30
2018-03-27T18:02:27.821Z,-4.30
2018-03-27T18:04:54.669Z,-4.30
2018-03-27T18:07:21.924Z,-4.30
2018-03-27T18:09:48.709Z,-4.40
2018-03-27T18:12:15.828Z,-4.50
2018-03-27T18:14:42.777Z,-4.50
2018-03-27T18:17:09.504Z,-4.60
2018-03-27T18:19:37.102Z,-4.70
2018-03-27T18:22:03.942Z,-4.70
2018-03-27T18:24:30.887Z,-4.70
2018-03-27T18:26:58.374Z,-4.80
2018-03-27T18:29:27.645Z,-4.90
2018-03-27T18:31:55.015Z,-5.00
2018-03-27T18:34:23.546Z,-5.20
2018-03-27T18:36:52.414Z,-5.20
2018-03-27T18:39:19.120Z,-5.20
2018-03-27T18:41:46.907Z,-5.20
2018-03-27T18:44:14.172Z,-5.20
2018-03-27T18:46:41.737Z,-5.30
2018-03-27T18:49:08.864Z,-5.40
2018-03-27T18:51:37.463Z,-5.50
2018-03-27T18:54:04.607Z,-5.50
2018-03-27T18:56:31.397Z,-5.50
2018-03-27T18:58:58.332Z,-5.50
2018-03-27T19:01:25.590Z,-5.60
2018-03-27T19:03:52.853Z,-5.70
2018-03-27T19:06:21.063Z,-5.80
2018-03-27T19:08:47.729Z,-5.90
2018-03-27T19:11:15.338Z,-6.00
2018-03-27T19:13:42.592Z,-6.00
2018-03-27T19:16:09.555Z,-6.10
2018-03-27T19:18:36.295Z,-6.20
2018-03-27T19:21:04.520Z,-6.20
2018-03-27T19:23:31.540Z,-6.20
2018-03-27T19:25:58.233Z,-6.30
2018-03-27T19:28:25.103Z,-6.30
2018-03-27T19:30:51.779Z,-6.40
2018-03-27T19:33:18.513Z,-6.50
2018-03-27T19:35:45.423Z,-6.60
2018-03-27T19:38:13.297Z,-6.80
2018-03-27T19:40:40.505Z,-6.80
2018-03-27T19:43:08.568Z,-6.90
2018-03-27T19:45:35.910Z,-6.90
2018-03-27T19:48:02.937Z,-6.90
2018-03-27T19:50:30.011Z,-7.00
2018-03-27T19:52:57.570Z,-7.10
2018-03-27T19:55:24.972Z,-7.10
2018-03-27T19:57:51.652Z,-7.10
2018-03-27T20:00:18.968Z,-7.20
2018-03-27T20:02:45.710Z,-7.30
2018-03-27T20:05:12.457Z,-7.40
2018-03-27T20:07:39.819Z,-7.50
2018-03-27T20:10:06.745Z,-7.50
2018-03-27T20:12:33.816Z,-7.50
2018-03-27T20:15:00.605Z,-7.50
2018-03-27T20:17:27.277Z,-7.50
2018-03-27T20:19:54.237Z,-7.50
2018-03-27T20:22:21.806Z,-7.70
2018-03-27T20:24:48.575Z,-7.70
2018-03-27T20:27:16.037Z,-7.70
2018-03-27T20:29:43.323Z,-7.70
2018-03-27T20:32:10.859Z,-7.70
2018-03-27T20:34:37.605Z,-7.70
2018-03-27T20:37:04.861Z,-7.80
2018-03-27T20:39:31.610Z,-7.80
2018-03-27T20:41:59.583Z,-7.70
2018-03-27T20:44:26.292Z,-7.90
2018-03-27T20:46:53.004Z,-7.90
2018-03-27T20:49:20.493Z,-7.90
2018-03-27T20:51:47.208Z,-8.00
2018-03-27T20:54:15.040Z,-8.00
2018-03-27T20:56:42.476Z,-8.00
2018-03-27T20:59:09.142Z,-8.00
2018-03-27T21:01:36.551Z,-8.00
2018-03-27T21:04:03.366Z,-8.10
2018-03-27T21:06:30.376Z,-8.10
2018-03-27T21:08:57.119Z,-8.20
2018-03-27T21:11:24.938Z,-8.20
2018-03-27T21:17:18.372Z,-8.20
2018-03-27T21:19:54.596Z,-8.30
2018-03-27T21:22:22.751Z,-8.30
2018-03-27T21:24:49.472Z,-8.50
2018-03-27T21:27:16.566Z,-8.50
2018-03-27T21:29:43.244Z,-8.60
2018-03-27T21:32:11.020Z,-8.70
2018-03-27T21:34:37.746Z,-8.70
2018-03-27T21:37:04.550Z,-8.70
2018-03-27T21:39:32.622Z,-8.80
2018-03-27T21:42:00.303Z,-8.80
2018-03-27T21:44:28.312Z,-8.80
2018-03-27T21:46:57.771Z,-8.90
2018-03-27T21:49:27.098Z,-8.90
2018-03-27T21:51:59.865Z,-9.00
2018-03-27T21:54:30.438Z,-9.00
2018-03-27T21:57:02.850Z,-9.00
2018-03-27T21:59:30.987Z,-9.00
2018-03-27T22:01:59.683Z,-9.00
2018-03-27T22:04:31.426Z,-9.10
2018-03-27T22:07:02.640Z,-9.10
2018-03-27T22:09:31.287Z,-9.10
2018-03-27T22:11:59.364Z,-9.00
2018-03-27T22:14:31.123Z,-9.00
2018-03-27T22:17:00.156Z,-9.10
2018-03-27T22:19:28.402Z,-9.10
2018-03-27T22:21:59.908Z,-9.10
2018-03-27T22:24:29.279Z,-9.20
2018-03-27T22:26:58.211Z,-9.30
2018-03-27T22:29:29.029Z,-9.30
2018-03-27T22:31:58.979Z,-9.40
2018-03-27T22:34:27.070Z,-9.30
2018-03-27T22:36:56.928Z,-9.20
2018-03-27T22:39:25.185Z,-9.20
2018-03-27T22:41:53.859Z,-9.20
2018-03-27T22:44:24.608Z,-9.30
2018-03-27T22:46:55.882Z,-9.30
2018-03-27T22:49:26.015Z,-9.40
2018-03-27T22:51:55.873Z,-9.30
2018-03-27T22:54:25.675Z,-9.30
2018-03-27T22:56:54.395Z,-9.40
2018-03-27T22:59:25.817Z,-9.40
2018-03-27T23:01:55.896Z,-9.50
2018-03-27T23:04:24.765Z,-9.50
2018-03-27T23:06:54.679Z,-9.60
2018-03-27T23:09:24.533Z,-9.80
2018-03-27T23:11:54.951Z,-9.80
2018-03-27T23:14:24.081Z,-9.80
2018-03-27T23:16:52.293Z,-9.80
2018-03-27T23:19:21.911Z,-9.80
2018-03-27T23:21:49.634Z,-9.80
2018-03-27T23:24:18.961Z,-9.70
2018-03-27T23:26:46.877Z,-9.70
2018-03-27T23:29:16.071Z,-9.70
2018-03-27T23:31:47.114Z,-9.70
2018-03-27T23:34:16.072Z,-9.70
2018-03-27T23:36:46.880Z,-9.70
2018-03-27T23:39:16.204Z,-9.70
2018-03-27T23:41:47.768Z,-9.70
2018-03-27T23:44:16.418Z,-9.70
2018-03-27T23:46:45.730Z,-9.90
2018-03-27T23:49:15.828Z,-9.90
2018-03-27T23:51:44.043Z,-9.90
2018-03-27T23:54:12.860Z,-10.00
2018-03-27T23:56:41.820Z,-10.10
2018-03-27T23:59:11.645Z,-9.90
